Time;durP1;ratioP1;P1;durP2;ratioP2;P2;SDS_P1;SDS_P2;PMS_P1;PMS_P2;Temp;Humidity;BMP_temperature;BMP_pressure;BME280_temperature;BME280_humidity;BME280_pressure;Samples;Min_cycle;Max_cycle;Signal;HPM_P1;HPM_P2
2022/03/19 00:00:22;;;;;;;18.73;8.07;;;;;;;7.66;59.70;101424.22;8293764;28;20058;-69
2022/03/19 00:04:23;;;;;;;12.73;7.53;;;;;;;7.63;60.07;101425.78;8297561;28;20050;-70
2022/03/19 00:08:25;;;;;;;13.93;9.10;;;;;;;7.62;59.78;101437.84;8299697;28;20140;-70
2022/03/19 00:12:27;;;;;;;17.58;7.97;;;;;;;7.57;60.68;101429.03;8294688;28;20088;-70
2022/03/19 00:16:28;;;;;;;15.17;9.57;;;;;;;7.50;60.62;101425.28;8291622;28;20065;-70
2022/03/19 00:20:31;;;;;;;13.77;8.95;;;;;;;7.46;61.23;101419.94;8300156;28;20057;-70
2022/03/19 00:24:35;;;;;;;13.73;8.27;;;;;;;7.43;61.25;101425.88;8297511;28;20079;-70
2022/03/19 00:28:36;;;;;;;14.33;8.97;;;;;;;7.41;61.49;101424.06;8299808;28;20064;-69
2022/03/19 00:36:53;;;;;;;13.20;8.77;;;;;;;7.35;62.11;101423.78;8297443;28;20072;-70
2022/03/19 00:40:55;;;;;;;13.67;8.67;;;;;;;7.30;62.13;101425.28;8299515;28;20060;-70
2022/03/19 00:44:57;;;;;;;17.07;9.40;;;;;;;7.27;62.63;101426.06;8301461;28;20057;-70
2022/03/19 00:48:59;;;;;;;13.00;8.80;;;;;;;7.25;62.38;101426.00;8253312;28;20054;-70
2022/03/19 00:53:01;;;;;;;13.80;8.70;;;;;;;7.19;62.69;101423.16;8249767;28;20053;-70
2022/03/19 00:57:03;;;;;;;14.82;8.82;;;;;;;7.17;63.00;101427.34;8258364;28;20133;-70
2022/03/19 01:01:04;;;;;;;15.27;9.23;;;;;;;7.14;63.03;101413.44;8249869;28;20062;-70
2022/03/19 01:05:07;;;;;;;15.37;9.70;;;;;;;7.11;62.99;101427.09;8269965;28;20053;-70
2022/03/19 01:09:08;;;;;;;;;;;;;;;7.08;63.46;101416.66;8268951;28;20422;-70
2022/03/19 01:13:10;;;;;;;12.47;8.03;;;;;;;7.07;63.71;101430.38;8266931;28;20020;-70
2022/03/19 01:17:12;;;;;;;16.47;9.87;;;;;;;7.02;63.70;101431.91;8285126;28;20053;-70
2022/03/19 01:21:14;;;;;;;16.30;10.00;;;;;;;7.01;63.72;101401.72;8306777;28;20866;-69
2022/03/19 01:25:18;;;;;;;13.32;9.00;;;;;;;7.03;64.02;101406.97;8306506;28;20061;-70
2022/03/19 01:29:19;;;;;;;16.80;9.53;;;;;;;7.00;63.99;101410.25;8305443;28;20054;-70
2022/03/19 01:33:21;;;;;;;13.13;9.23;;;;;;;6.95;63.82;101414.34;8299571;28;20169;-70
2022/03/19 01:37:22;;;;;;;18.00;10.03;;;;;;;6.95;64.05;101415.25;8303831;28;20136;-70
2022/03/19 01:41:24;;;;;;;18.40;9.82;;;;;;;6.92;64.50;101406.50;8296315;28;20145;-70
2022/03/19 01:45:25;;;;;;;17.23;9.87;;;;;;;6.89;64.31;101411.53;8303012;28;20082;-70
2022/03/19 01:49:27;;;;;;;14.43;9.80;;;;;;;6.86;64.20;101413.97;8301974;28;20045;-70
2022/03/19 01:53:29;;;;;;;16.23;10.00;;;;;;;6.82;64.71;101404.31;8302950;28;20061;-70
2022/03/19 01:57:34;;;;;;;20.97;10.57;;;;;;;6.83;64.60;101403.53;8304764;28;20890;-70
2022/03/19 02:01:35;;;;;;;17.43;9.97;;;;;;;6.79;64.57;101405.06;8297021;28;20054;-69
2022/03/19 02:05:37;;;;;;;24.40;11.70;;;;;;;6.76;64.72;101404.94;8305014;28;20141;-69
2022/03/19 02:09:40;;;;;;;23.40;11.53;;;;;;;6.71;64.73;101397.81;8292550;28;20042;-69
2022/03/19 02:13:42;;;;;;;20.10;11.13;;;;;;;6.70;64.82;101396.06;8301132;28;20152;-70
2022/03/19 02:17:44;;;;;;;19.93;10.63;;;;;;;6.66;64.96;101401.09;8278851;28;20053;-70
2022/03/19 02:21:48;;;;;;;17.77;10.23;;;;;;;6.64;64.88;101391.50;8271855;28;20438;-70
2022/03/19 02:25:50;;;;;;;23.47;11.33;;;;;;;6.61;64.80;101389.66;8271525;28;20389;-70
2022/03/19 02:29:52;;;;;;;22.00;11.17;;;;;;;6.57;64.94;101386.91;8273355;28;20060;-70
2022/03/19 02:33:53;;;;;;;24.43;10.80;;;;;;;6.54;65.03;101395.41;8268511;28;20062;-70
2022/03/19 02:37:54;;;;;;;20.83;11.97;;;;;;;6.52;64.51;101386.69;8272961;28;20061;-69
2022/03/19 02:42:06;;;;;;;20.97;12.03;;;;;;;6.51;64.86;101378.91;8270696;28;20132;-70
2022/03/19 02:46:08;;;;;;;14.17;9.13;;;;;;;6.50;64.63;101383.19;8273769;28;20065;-70
2022/03/19 02:50:10;;;;;;;17.42;9.82;;;;;;;6.50;64.47;101378.00;8306127;28;20630;-70
2022/03/19 02:54:13;;;;;;;17.30;10.23;;;;;;;6.47;63.86;101380.47;8295640;28;20165;-70
2022/03/19 02:58:15;;;;;;;16.53;9.07;;;;;;;6.46;64.33;101377.78;8294330;28;20413;-70
2022/03/19 03:02:16;;;;;;;15.50;9.83;;;;;;;6.42;63.93;101370.72;8297315;28;20061;-70
2022/03/19 03:06:20;;;;;;;16.00;9.57;;;;;;;6.39;64.33;101371.47;8287912;28;20049;-70
2022/03/19 03:10:22;;;;;;;16.57;9.90;;;;;;;6.35;64.03;101373.06;8289845;28;20046;-70
2022/03/19 03:14:24;;;;;;;13.05;8.57;;;;;;;6.33;64.02;101368.66;8285680;28;20497;-70
2022/03/19 03:18:26;;;;;;;16.60;9.43;;;;;;;6.31;64.10;101358.25;8308223;28;20136;-70
2022/03/19 03:22:29;;;;;;;17.77;9.03;;;;;;;6.28;63.93;101365.88;8300168;28;20507;-70
2022/03/19 03:26:30;;;;;;;14.40;8.80;;;;;;;6.27;63.99;101356.34;8305405;28;20439;-70
2022/03/19 03:30:32;;;;;;;14.13;8.40;;;;;;;6.26;63.77;101366.59;8291496;28;20056;-71
2022/03/19 03:34:33;;;;;;;15.23;9.23;;;;;;;6.21;63.75;101363.81;8290710;28;20157;-70
2022/03/19 03:38:35;;;;;;;16.33;8.87;;;;;;;6.20;63.82;101358.59;8271855;28;20069;-70
2022/03/19 03:42:41;;;;;;;14.67;8.40;;;;;;;6.17;64.10;101359.34;8272837;28;20514;-70
2022/03/19 03:46:43;;;;;;;13.40;7.80;;;;;;;6.14;64.15;101356.63;8272168;28;20058;-70
2022/03/19 03:50:46;;;;;;;15.73;8.00;;;;;;;6.12;64.01;101365.13;8274427;28;20062;-70
2022/03/19 03:54:47;;;;;;;13.73;8.90;;;;;;;6.08;64.14;101353.75;8259632;28;20053;-70
2022/03/19 03:58:49;;;;;;;12.33;7.57;;;;;;;6.04;64.09;101354.44;8272156;28;20056;-70
2022/03/19 04:02:50;;;;;;;13.27;8.43;;;;;;;6.02;64.48;101356.94;8269409;28;20743;-70
2022/03/19 04:06:52;;;;;;;19.33;8.50;;;;;;;6.01;64.69;101355.19;8269380;28;20057;-70
2022/03/19 04:10:53;;;;;;;14.97;8.80;;;;;;;6.00;64.68;101353.41;8265721;28;20062;-70
2022/03/19 04:14:55;;;;;;;16.00;10.23;;;;;;;5.98;64.72;101355.06;8251252;28;20442;-70
2022/03/19 04:18:56;;;;;;;14.83;7.30;;;;;;;5.95;64.79;101349.75;8260947;28;20050;-70
2022/03/19 04:22:58;;;;;;;15.50;9.07;;;;;;;5.95;64.81;101354.91;8266356;28;20058;-70
2022/03/19 04:26:59;;;;;;;15.50;9.57;;;;;;;5.94;65.10;101347.13;8271760;28;20776;-70
2022/03/19 04:31:00;;;;;;;16.93;9.97;;;;;;;5.92;65.04;101348.72;8267746;28;20148;-70
2022/03/19 04:36:29;;;;;;;20.07;9.77;;;;;;;5.91;65.02;101355.56;8283995;28;20087;-70
2022/03/19 04:39:24;;;;;;;21.47;8.90;;;;;;;5.91;65.03;101355.56;8297362;28;20504;-70
2022/03/19 04:43:25;;;;;;;19.80;9.97;;;;;;;5.89;65.21;101353.69;8300116;28;20062;-70
2022/03/19 04:47:28;;;;;;;18.13;9.37;;;;;;;5.86;65.01;101344.13;8292074;28;20439;-70
2022/03/19 04:51:37;;;;;;;14.57;9.30;;;;;;;5.83;65.29;101349.16;8320501;28;20132;-70
2022/03/19 04:55:40;;;;;;;14.90;9.07;;;;;;;5.81;65.30;101348.19;8301072;28;20498;-70
2022/03/19 04:59:41;;;;;;;;;;;;;;;5.80;65.17;101342.97;8302735;28;20041;-70
2022/03/19 05:03:42;;;;;;;18.47;8.97;;;;;;;5.78;65.63;101339.44;8300354;28;19929;-70
2022/03/19 05:07:44;;;;;;;14.27;8.23;;;;;;;5.74;65.54;101344.47;8302358;28;20465;-70
2022/03/19 05:11:50;;;;;;;13.63;8.60;;;;;;;5.73;65.34;101349.53;8302513;28;20053;-70
2022/03/19 05:15:52;;;;;;;14.80;9.37;;;;;;;5.69;65.50;101340.78;8303176;28;20065;-70
2022/03/19 05:19:54;;;;;;;14.07;9.20;;;;;;;5.68;65.56;101340.72;8300163;28;20096;-70
2022/03/19 05:23:55;;;;;;;14.03;9.60;;;;;;;5.64;65.77;101351.69;8302086;28;20054;-70
2022/03/19 05:27:57;;;;;;;16.43;8.93;;;;;;;5.64;65.74;101341.38;8303424;28;20049;-70
2022/03/19 05:31:59;;;;;;;15.67;9.43;;;;;;;5.60;65.93;101347.22;8298740;28;20136;-70
2022/03/19 05:36:00;;;;;;;14.37;9.33;;;;;;;5.59;65.84;101343.75;8265727;28;1572502;-70
2022/03/19 05:40:06;;;;;;;12.73;8.53;;;;;;;5.59;66.14;101351.47;8315930;28;20137;-70
2022/03/19 05:44:07;;;;;;;19.73;9.13;;;;;;;5.55;66.21;101353.81;8308494;28;20053;-70
2022/03/19 05:48:09;;;;;;;16.10;9.33;;;;;;;5.52;66.44;101349.41;8295585;28;20068;-70
2022/03/19 05:52:10;;;;;;;15.60;8.83;;;;;;;5.49;66.82;101357.00;8304685;28;20059;-70
2022/03/19 05:56:13;;;;;;;15.97;9.20;;;;;;;5.46;66.65;101356.84;8297232;28;20221;-70
2022/03/19 06:00:16;;;;;;;15.23;9.07;;;;;;;5.51;66.71;101365.69;8314702;28;20088;-70
2022/03/19 06:04:18;;;;;;;14.63;8.40;;;;;;;5.52;66.97;101353.69;8301400;28;20077;-70
2022/03/19 06:08:19;;;;;;;20.27;10.20;;;;;;;5.55;66.80;101351.25;8303631;28;20054;-70
2022/03/19 06:12:21;;;;;;;16.33;9.20;;;;;;;5.60;66.97;101362.66;8297778;28;20049;-70
2022/03/19 06:16:23;;;;;;;21.93;10.60;;;;;;;5.65;67.18;101353.44;8299689;28;20054;-70
2022/03/19 06:20:25;;;;;;;20.17;10.25;;;;;;;5.69;66.78;101345.94;8300067;28;20061;-70
2022/03/19 06:24:26;;;;;;;17.43;9.77;;;;;;;5.76;66.44;101339.38;8297097;28;20141;-70
2022/03/19 06:28:29;;;;;;;16.58;9.75;;;;;;;5.87;66.31;101347.59;8298797;28;20382;-70
2022/03/19 06:32:30;;;;;;;25.30;11.40;;;;;;;5.98;66.21;101346.44;8292179;28;20069;-70
2022/03/19 06:40:51;;;;;;;21.20;10.50;;;;;;;6.27;65.11;101346.03;8299172;28;20141;-70
2022/03/19 06:44:53;;;;;;;15.63;9.30;;;;;;;6.72;64.11;101343.69;8301508;28;20141;-70
2022/03/19 06:48:54;;;;;;;14.57;9.60;;;;;;;7.25;61.81;101332.97;8294650;28;20085;-70
2022/03/19 06:52:56;;;;;;;19.60;10.87;;;;;;;7.62;60.59;101334.44;8302181;28;20148;-70
2022/03/19 06:57:00;;;;;;;16.93;8.93;;;;;;;7.67;60.01;101332.00;8283720;28;20140;-70
2022/03/19 07:01:03;;;;;;;18.97;10.37;;;;;;;7.51;60.84;101330.53;8301272;28;20071;-70
2022/03/19 07:05:05;;;;;;;18.33;9.63;;;;;;;7.65;60.43;101324.19;8308793;28;20552;-70
2022/03/19 07:09:07;;;;;;;19.10;10.23;;;;;;;7.90;59.70;101328.63;8296134;28;20088;-70
2022/03/19 07:13:08;;;;;;;15.53;10.10;;;;;;;8.16;58.54;101324.38;8295711;28;20060;-70
2022/03/19 07:17:10;;;;;;;18.00;9.27;;;;;;;8.43;58.08;101329.69;8301242;28;20061;-70
2022/03/19 07:21:12;;;;;;;17.67;10.63;;;;;;;8.72;56.60;101321.22;8299326;28;20054;-70
2022/03/19 07:25:14;;;;;;;15.40;10.13;;;;;;;9.03;55.53;101315.38;8300854;28;20057;-70
2022/03/19 07:29:18;;;;;;;21.23;9.33;;;;;;;9.32;54.39;101324.06;8310937;28;20321;-70
2022/03/19 07:33:26;;;;;;;15.25;8.93;;;;;;;9.63;53.96;101314.66;8298488;28;20290;-70
2022/03/19 07:37:28;;;;;;;18.30;9.23;;;;;;;9.88;52.75;101316.28;8278667;28;20059;-70
2022/03/19 07:41:48;;;;;;;17.25;8.68;;;;;;;10.24;52.13;101306.97;8307567;28;20709;-70
2022/03/19 07:45:50;;;;;;;15.75;8.48;;;;;;;10.36;51.47;101316.78;8294810;28;20137;-70
2022/03/19 07:49:51;;;;;;;20.90;9.90;;;;;;;10.57;50.49;101312.19;8287413;28;20136;-69
2022/03/19 07:53:53;;;;;;;14.75;9.90;;;;;;;10.64;50.31;101313.22;8296066;28;20060;-70
2022/03/19 07:57:54;;;;;;;17.50;10.40;;;;;;;10.65;49.50;101306.31;8290904;28;20438;-70
2022/03/19 08:01:56;;;;;;;13.93;8.95;;;;;;;10.72;49.31;101306.50;8284432;28;20069;-70
2022/03/19 08:05:59;;;;;;;12.32;8.90;;;;;;;10.85;48.96;101303.38;8287464;28;20112;-71
2022/03/19 08:10:01;;;;;;;15.50;8.57;;;;;;;10.97;48.61;101301.94;8302190;28;20479;-69
2022/03/19 08:14:04;;;;;;;12.40;7.93;;;;;;;11.06;48.13;101299.56;8266042;28;20054;-70
2022/03/19 08:18:06;;;;;;;14.77;9.00;;;;;;;11.23;47.80;101297.34;8286129;28;20499;-69
2022/03/19 08:22:08;;;;;;;14.95;8.15;;;;;;;11.18;46.73;101295.53;8282999;28;20695;-70
2022/03/19 08:26:10;;;;;;;15.85;9.65;;;;;;;11.38;46.67;101297.72;8271307;28;20049;-70
2022/03/19 08:30:12;;;;;;;14.40;9.80;;;;;;;11.43;46.16;101291.75;8276373;28;20053;-69
2022/03/19 08:34:13;;;;;;;16.90;9.18;;;;;;;11.53;46.15;101292.00;8285579;28;20057;-70
2022/03/19 08:42:35;;;;;;;14.30;10.30;;;;;;;11.73;44.99;101285.50;8292840;28;20053;-71
2022/03/19 08:46:37;;;;;;;;;;;;;;;11.86;45.47;101284.06;8282295;28;20081;-71
2022/03/19 08:50:39;;;;;;;12.95;7.65;;;;;;;12.05;44.86;101278.38;8289008;28;19925;-71
2022/03/19 08:54:40;;;;;;;16.70;9.95;;;;;;;11.96;45.11;101283.38;8287238;28;20612;-71
2022/03/19 08:58:41;;;;;;;14.15;9.30;;;;;;;12.04;45.05;101274.03;8285274;28;20783;-71
2022/03/19 09:02:43;;;;;;;15.63;10.57;;;;;;;12.26;44.81;101285.72;8281810;28;20058;-70
2022/03/19 09:06:45;;;;;;;14.88;9.50;;;;;;;12.32;44.41;101270.22;8288326;28;20096;-70
2022/03/19 09:10:47;;;;;;;13.23;8.85;;;;;;;12.37;44.25;101264.22;8277710;28;20144;-70
2022/03/19 09:14:48;;;;;;;15.75;8.93;;;;;;;12.46;44.28;101258.31;8282523;28;20595;-70
2022/03/19 09:18:51;;;;;;;12.27;8.87;;;;;;;12.66;43.31;101259.53;8280639;28;20061;-71
2022/03/19 09:22:52;;;;;;;13.43;8.30;;;;;;;12.72;43.48;101256.16;8272252;28;20049;-70
2022/03/19 09:26:54;;;;;;;12.93;10.10;;;;;;;12.79;42.48;101262.38;8282818;28;20062;-70
2022/03/19 09:30:55;;;;;;;10.73;8.90;;;;;;;12.84;42.42;101263.31;8270239;28;20081;-70
2022/03/19 09:34:58;;;;;;;12.47;9.03;;;;;;;12.75;42.23;101258.84;8278418;28;20058;-70
2022/03/19 09:39:00;;;;;;;13.80;9.30;;;;;;;12.71;42.56;101244.84;8281364;28;20077;-70
2022/03/19 09:43:02;;;;;;;12.25;10.00;;;;;;;12.78;42.96;101235.41;8289378;28;20046;-70
2022/03/19 09:47:04;;;;;;;14.23;9.55;;;;;;;12.97;42.66;101233.97;8285975;28;20085;-71
2022/03/19 09:51:09;;;;;;;13.48;8.55;;;;;;;12.96;42.33;101225.28;8295061;28;20453;-70
2022/03/19 09:55:16;;;;;;;16.42;9.15;;;;;;;13.06;42.55;101222.78;8306029;28;20064;-70
2022/03/19 09:59:34;;;;;;;12.00;9.48;;;;;;;13.26;42.29;101218.78;8296185;28;20084;-70
2022/03/19 10:03:39;;;;;;;15.23;8.75;;;;;;;13.48;41.38;101214.75;8284921;28;20077;-70
2022/03/19 10:12:18;;;;;;;13.50;9.05;;;;;;;13.34;41.43;101198.03;8271236;28;20050;-70
2022/03/19 10:16:25;;;;;;;13.27;8.15;;;;;;;13.50;41.20;101198.25;8287235;28;20156;-70
2022/03/19 10:20:27;;;;;;;13.73;9.45;;;;;;;13.52;42.04;101201.75;8285989;28;20073;-70
2022/03/19 10:24:29;;;;;;;13.23;8.63;;;;;;;13.55;41.60;101190.47;8285430;28;20057;-70
2022/03/19 10:28:35;;;;;;;10.88;7.25;;;;;;;13.66;41.53;101182.78;8288515;28;20338;-71
2022/03/19 10:32:41;;;;;;;17.38;10.68;;;;;;;13.68;42.11;101181.94;8282448;28;20064;-70
2022/03/19 10:36:44;;;;;;;14.57;8.95;;;;;;;13.73;41.77;101181.97;8283591;28;20085;-70
2022/03/19 10:40:48;;;;;;;12.13;8.25;;;;;;;13.82;41.67;101179.44;8285207;28;20188;-70
2022/03/19 10:44:49;;;;;;;17.65;8.73;;;;;;;13.67;41.76;101163.66;8295052;28;20064;-70
2022/03/19 10:48:58;;;;;;;12.63;8.13;;;;;;;13.87;41.75;101151.69;8295991;28;20451;-70
2022/03/19 10:53:13;;;;;;;10.95;8.68;;;;;;;14.19;41.23;101152.88;8288606;28;20102;-70
2022/03/19 10:57:14;;;;;;;13.95;7.53;;;;;;;14.19;40.77;101149.38;8287367;28;20057;-70
2022/03/19 11:01:16;;;;;;;8.93;7.13;;;;;;;14.17;39.69;101124.97;8279640;28;20160;-70
2022/03/19 11:05:19;;;;;;;13.05;7.47;;;;;;;14.25;40.21;101138.97;8287468;28;20460;-70
2022/03/19 11:09:22;;;;;;;;;;;;;;;14.47;39.69;101134.84;8283725;28;20160;-70
2022/03/19 11:13:27;;;;;;;11.90;6.18;;;;;;;14.63;39.70;101133.22;8272970;28;19925;-70
2022/03/19 11:17:33;;;;;;;14.10;6.93;;;;;;;14.74;40.11;101131.56;8291622;28;20694;-70
2022/03/19 11:21:34;;;;;;;8.30;6.80;;;;;;;14.91;38.63;101124.69;8300066;28;20045;-70
2022/03/19 11:25:44;;;;;;;8.30;6.15;;;;;;;14.99;38.10;101119.47;8292855;28;20049;-70
2022/03/19 11:29:46;;;;;;;10.07;5.75;;;;;;;15.06;38.53;101113.41;8301748;28;20064;-70
2022/03/19 11:33:47;;;;;;;13.27;5.37;;;;;;;15.09;38.67;101101.25;8294704;28;20070;-70
2022/03/19 11:38:01;;;;;;;8.63;4.80;;;;;;;15.10;37.84;101096.88;8280522;28;20050;-70
2022/03/19 11:42:06;;;;;;;8.20;4.53;;;;;;;15.03;37.93;101098.56;8277517;28;20064;-70
2022/03/19 11:46:13;;;;;;;9.50;4.75;;;;;;;15.15;37.09;101065.50;8282665;28;20061;-70
2022/03/19 11:50:35;;;;;;;7.07;4.85;;;;;;;15.15;37.26;101063.75;8286541;28;20053;-70
2022/03/19 11:55:03;;;;;;;4.88;3.65;;;;;;;14.95;35.30;101047.97;8281368;28;20053;-70
2022/03/19 11:59:06;;;;;;;6.43;3.38;;;;;;;14.96;35.07;101052.34;8277687;28;20768;-70
2022/03/19 12:03:19;;;;;;;7.50;3.88;;;;;;;15.01;35.17;101045.38;8280208;28;20053;-70
2022/03/19 12:07:39;;;;;;;7.20;4.05;;;;;;;14.87;34.48;101039.19;8280808;28;20053;-70
2022/03/19 12:11:40;;;;;;;5.22;2.83;;;;;;;15.00;34.43;101021.81;8284558;28;20619;-70
2022/03/19 12:15:42;;;;;;;3.03;2.50;;;;;;;15.05;34.62;101017.47;8283089;28;20068;-70
2022/03/19 12:19:54;;;;;;;6.70;2.90;;;;;;;15.11;33.66;101002.69;8287349;28;20064;-70
2022/03/19 12:24:06;;;;;;;7.80;3.40;;;;;;;15.08;33.98;100996.56;8286627;28;20086;-70
2022/03/19 12:28:08;;;;;;;5.20;2.60;;;;;;;15.14;33.79;100987.88;8280928;28;20046;-71
2022/03/19 12:32:13;;;;;;;4.25;2.45;;;;;;;15.30;32.73;100974.81;8276508;28;20069;-70
2022/03/19 12:36:17;;;;;;;3.90;2.30;;;;;;;15.44;33.03;100959.16;8259571;28;20054;-70
2022/03/19 12:40:24;;;;;;;3.75;2.33;;;;;;;15.54;33.45;100971.34;8254632;28;20901;-71
2022/03/19 12:44:29;;;;;;;4.90;2.00;;;;;;;15.52;32.46;100952.16;8253280;28;20415;-71
2022/03/19 12:48:32;;;;;;;4.90;1.83;;;;;;;15.37;32.36;100960.00;8249519;28;20053;-71
2022/03/19 12:52:33;;;;;;;3.15;2.15;;;;;;;15.38;32.99;100946.91;8250290;28;20050;-71
2022/03/19 12:56:36;;;;;;;3.80;2.10;;;;;;;15.59;32.39;100940.84;8250748;28;20050;-70
2022/03/19 13:00:38;;;;;;;3.42;1.75;;;;;;;15.59;30.37;100927.75;8249145;28;20056;-70
2022/03/19 13:04:43;;;;;;;2.67;1.75;;;;;;;15.54;31.45;100926.84;8253781;28;20070;-71
2022/03/19 13:08:50;;;;;;;8.20;1.80;;;;;;;15.55;30.37;100912.88;8257096;28;20097;-71
2022/03/19 13:13:10;;;;;;;3.90;1.30;;;;;;;15.52;29.84;100914.63;8257077;28;20049;-71
2022/03/19 13:17:11;;;;;;;7.28;1.58;;;;;;;15.25;29.51;100903.25;8260322;28;20061;-70
2022/03/19 13:21:12;;;;;;;2.75;1.10;;;;;;;15.41;29.30;100899.78;8264500;28;20157;-70
2022/03/19 13:25:14;;;;;;;3.40;1.40;;;;;;;15.40;28.33;100887.56;8266498;28;20054;-70
2022/03/19 13:29:35;;;;;;;6.30;2.13;;;;;;;15.31;27.32;100887.59;8260672;28;20111;-71
2022/03/19 13:33:36;;;;;;;4.68;1.40;;;;;;;15.24;27.41;100874.47;8258935;28;20621;-70
2022/03/19 13:37:39;;;;;;;5.88;1.40;;;;;;;15.23;26.92;100863.13;8299627;28;20046;-70
2022/03/19 13:41:40;;;;;;;;;;;;;;;15.17;26.71;100851.81;8289488;28;20080;-70
2022/03/19 13:45:42;;;;;;;2.53;0.80;;;;;;;15.23;27.61;100836.97;8297604;28;19925;-70
2022/03/19 13:49:47;;;;;;;1.65;1.17;;;;;;;15.30;27.07;100836.13;8293327;28;20445;-70
2022/03/19 13:53:52;;;;;;;1.60;0.90;;;;;;;15.26;26.79;100837.00;8288654;28;20103;-70
2022/03/19 13:58:02;;;;;;;1.17;0.70;;;;;;;15.31;27.02;100818.66;8293241;28;20136;-71
2022/03/19 14:02:04;;;;;;;2.10;1.10;;;;;;;15.33;26.40;100820.41;8264580;28;20072;-70
2022/03/19 14:06:09;;;;;;;2.60;1.17;;;;;;;15.30;26.48;100814.31;8297324;28;20128;-70
2022/03/19 14:10:11;;;;;;;2.58;1.05;;;;;;;15.27;27.61;100811.69;8289031;28;20429;-70
2022/03/19 14:14:19;;;;;;;9.02;1.60;;;;;;;15.17;26.17;100810.81;8294100;28;20057;-70
2022/03/19 14:18:32;;;;;;;4.47;1.58;;;;;;;15.12;26.10;100796.88;8289383;28;20058;-70
2022/03/19 14:22:33;;;;;;;3.13;1.10;;;;;;;15.19;27.90;100797.72;8292631;28;20057;-70
2022/03/19 14:26:35;;;;;;;2.95;1.05;;;;;;;15.06;28.00;100792.50;8291718;28;20366;-70
2022/03/19 14:30:38;;;;;;;2.43;1.30;;;;;;;14.98;27.10;100782.91;8293543;28;20042;-70
2022/03/19 14:34:39;;;;;;;2.28;1.08;;;;;;;14.98;27.66;100775.06;8294108;28;20141;-70
2022/03/19 14:38:43;;;;;;;2.10;1.08;;;;;;;14.91;29.49;100766.38;8274038;28;20060;-70
2022/03/19 14:42:45;;;;;;;4.50;1.02;;;;;;;14.79;29.53;100772.44;8284479;28;20141;-70
2022/03/19 14:46:47;;;;;;;4.63;1.60;;;;;;;14.61;32.66;100769.81;8293464;28;20057;-69
2022/03/19 14:50:50;;;;;;;3.00;1.20;;;;;;;14.44;33.57;100764.56;8291074;28;20430;-69
2022/03/19 14:54:52;;;;;;;2.70;1.60;;;;;;;14.14;34.05;100765.31;8289359;28;20140;-70
2022/03/19 14:58:53;;;;;;;5.53;1.50;;;;;;;13.76;33.86;100764.31;8292703;28;20055;-69
2022/03/19 15:02:55;;;;;;;4.47;1.35;;;;;;;13.77;34.61;100763.44;8295888;28;20156;-70
2022/03/19 15:06:57;;;;;;;4.03;1.38;;;;;;;13.96;34.17;100741.75;8280627;28;20092;-69
2022/03/19 15:10:59;;;;;;;3.20;1.43;;;;;;;13.98;32.52;100734.78;8298560;28;20053;-69
2022/03/19 15:15:02;;;;;;;3.40;1.77;;;;;;;13.96;32.94;100751.31;8297964;28;20049;-71
2022/03/19 15:19:05;;;;;;;1.73;1.30;;;;;;;13.89;32.03;100735.66;8295423;28;20737;-70
2022/03/19 15:23:07;;;;;;;1.63;0.98;;;;;;;13.75;32.19;100746.88;8294322;28;20058;-71
2022/03/19 15:27:11;;;;;;;1.65;1.17;;;;;;;13.65;31.29;100739.91;8292976;28;20222;-70
2022/03/19 15:31:13;;;;;;;3.05;1.15;;;;;;;13.91;31.57;100731.28;8291782;28;20095;-71
2022/03/19 15:35:14;;;;;;;4.30;1.50;;;;;;;14.13;32.05;100727.00;8265405;28;20070;-70
2022/03/19 15:39:16;;;;;;;2.67;2.33;;;;;;;14.17;32.07;100723.53;8262122;28;20632;-70
2022/03/19 15:43:18;;;;;;;6.10;1.85;;;;;;;13.83;31.92;100716.47;8236952;28;20050;-70
2022/03/19 15:47:19;;;;;;;4.17;1.40;;;;;;;13.88;31.40;100706.91;8248946;28;20361;-70
2022/03/19 15:51:21;;;;;;;5.37;1.50;;;;;;;14.26;29.97;100709.63;8250973;28;20564;-70
2022/03/19 15:55:23;;;;;;;3.50;1.80;;;;;;;14.87;29.38;100699.22;8243655;28;20141;-70
2022/03/19 15:59:24;;;;;;;1.52;1.00;;;;;;;16.57;26.55;100689.78;8246474;28;20042;-70
2022/03/19 16:03:26;;;;;;;2.17;1.23;;;;;;;19.30;24.27;100696.66;8241867;28;20060;-70
2022/03/19 16:07:28;;;;;;;3.23;1.63;;;;;;;18.39;23.34;100695.56;8235723;28;20062;-70
2022/03/19 16:11:29;;;;;;;4.43;1.70;;;;;;;18.21;23.12;100695.84;8252676;28;20058;-70
2022/03/19 16:15:30;;;;;;;5.43;1.07;;;;;;;15.60;24.89;100704.31;8239992;28;20429;-71
2022/03/19 16:19:32;;;;;;;3.45;1.15;;;;;;;14.44;26.76;100698.34;8247266;28;20671;-71
2022/03/19 16:23:33;;;;;;;3.83;2.22;;;;;;;13.72;27.92;100695.56;8249173;28;20457;-71
2022/03/19 16:27:35;;;;;;;4.38;1.50;;;;;;;13.29;28.82;100700.59;8228339;28;20061;-70
2022/03/19 16:31:37;;;;;;;1.67;0.82;;;;;;;14.16;27.19;100692.19;8241558;28;20050;-70
2022/03/19 16:35:39;;;;;;;1.83;0.77;;;;;;;16.84;23.96;100693.94;8250150;28;20085;-70
2022/03/19 16:39:41;;;;;;;5.97;1.00;;;;;;;15.36;24.75;100686.03;8257783;28;20088;-70
2022/03/19 16:43:42;;;;;;;1.43;0.77;;;;;;;13.88;26.35;100679.06;8250142;28;20061;-71
2022/03/19 16:47:44;;;;;;;2.40;0.63;;;;;;;13.05;27.31;100687.34;8257542;28;20093;-71
2022/03/19 16:51:45;;;;;;;1.27;0.60;;;;;;;12.45;28.02;100687.75;8264182;28;20692;-70
2022/03/19 16:55:47;;;;;;;2.30;0.67;;;;;;;11.97;28.75;100696.81;8251417;28;20054;-70
2022/03/19 16:59:48;;;;;;;0.90;0.50;;;;;;;11.56;29.47;100702.38;8255784;28;20049;-70
2022/03/19 17:03:50;;;;;;;1.83;0.70;;;;;;;11.28;29.79;100698.53;8252795;28;20060;-70
2022/03/19 17:07:52;;;;;;;1.07;0.60;;;;;;;10.96;29.82;100700.72;8255995;28;20058;-70
2022/03/19 17:11:53;;;;;;;0.80;0.47;;;;;;;10.73;30.33;100708.13;8256879;28;20076;-70
2022/03/19 17:15:55;;;;;;;2.07;0.60;;;;;;;10.57;30.93;100703.53;8250736;28;20382;-71
2022/03/19 17:20:02;;;;;;;2.92;0.60;;;;;;;10.42;31.17;100703.28;8254677;28;20046;-70
2022/03/19 17:24:04;;;;;;;1.77;1.02;;;;;;;10.23;31.43;100702.06;8248141;28;20796;-70
2022/03/19 17:28:09;;;;;;;2.53;0.75;;;;;;;10.03;31.15;100711.16;8247535;28;20062;-70
2022/03/19 17:32:11;;;;;;;4.00;0.88;;;;;;;9.90;32.24;100700.56;8246038;28;20054;-70
2022/03/19 17:36:12;;;;;;;4.65;0.75;;;;;;;9.77;31.80;100688.19;8280214;28;20470;-70
2022/03/19 17:40:14;;;;;;;2.65;1.08;;;;;;;9.67;32.16;100684.53;8274191;28;20282;-70
2022/03/19 17:44:15;;;;;;;2.92;0.80;;;;;;;9.59;32.27;100695.63;8300243;28;20063;-70
2022/03/19 17:48:17;;;;;;;1.93;0.63;;;;;;;9.45;32.70;100681.47;8282403;28;20057;-70
2022/03/19 17:52:19;;;;;;;0.82;0.57;;;;;;;9.34;32.62;100683.88;8280357;28;20358;-70
2022/03/19 17:56:21;;;;;;;;;;;;;;;9.24;33.51;100685.38;8267060;28;20053;-70
2022/03/19 18:00:28;;;;;;;0.87;0.50;;;;;;;9.17;33.26;100687.81;8276062;28;19925;-70
2022/03/19 18:04:30;;;;;;;1.33;0.60;;;;;;;9.08;33.36;100681.56;8297160;28;20941;-70
2022/03/19 18:08:31;;;;;;;1.83;0.68;;;;;;;9.00;32.83;100692.63;8277244;28;20719;-70
2022/03/19 18:12:33;;;;;;;1.00;0.40;;;;;;;8.94;32.79;100693.31;8288952;28;20050;-70
2022/03/19 18:16:34;;;;;;;1.08;0.40;;;;;;;8.88;32.99;100700.97;8279428;28;20076;-70
2022/03/19 18:20:36;;;;;;;1.08;0.50;;;;;;;8.79;32.74;100683.47;8279173;28;20089;-70
2022/03/19 18:24:37;;;;;;;0.75;0.40;;;;;;;8.74;32.24;100689.41;8270408;28;20054;-69
2022/03/19 18:28:39;;;;;;;2.75;0.60;;;;;;;8.68;32.33;100677.19;8285966;28;20063;-71
2022/03/19 18:32:41;;;;;;;2.35;0.70;;;;;;;8.64;32.46;100680.56;8288216;28;20057;-70
2022/03/19 18:36:43;;;;;;;1.90;0.82;;;;;;;8.57;32.63;100676.03;8268590;28;20370;-70
2022/03/19 18:40:45;;;;;;;2.60;0.75;;;;;;;8.52;32.77;100679.38;8264163;28;20164;-70
2022/03/19 18:44:46;;;;;;;1.33;0.60;;;;;;;8.43;33.33;100677.41;8263393;28;20133;-70
2022/03/19 18:48:49;;;;;;;1.73;0.80;;;;;;;8.37;34.09;100672.09;8264722;28;20097;-70
2022/03/19 18:52:50;;;;;;;1.17;0.70;;;;;;;8.27;33.55;100664.94;8265361;28;20046;-70
2022/03/19 18:57:12;;;;;;;2.58;0.90;;;;;;;8.23;33.78;100674.28;8267167;28;20548;-70
2022/03/19 19:01:13;;;;;;;4.80;1.10;;;;;;;8.18;33.67;100686.25;8260718;28;20149;-70
2022/03/19 19:05:15;;;;;;;5.17;2.07;;;;;;;8.13;34.36;100680.97;8269082;28;20631;-70